Time;durP1;ratioP1;P1;durP2;ratioP2;P2;SDS_P1;SDS_P2;PMS_P1;PMS_P2;Temp;Humidity;BMP_temperature;BMP_pressure;BME280_temperature;BME280_humidity;BME280_pressure;Samples;Min_cycle;Max_cycle;Signal;HPM_P1;HPM_P2
2023/12/26 00:00:26;;;;;;;4.13;3.80;;;8.60;1.00;;;;;;5072423;28;20445;-67
2023/12/26 00:02:52;;;;;;;5.33;4.50;;;8.60;1.00;;;;;;5071829;28;20175;-69
2023/12/26 00:05:18;;;;;;;4.93;4.10;;;8.60;1.00;;;;;;5070841;28;20679;-69
2023/12/26 00:07:45;;;;;;;4.37;4.07;;;8.60;1.00;;;;;;5072083;28;20579;-65
2023/12/26 00:10:11;;;;;;;3.67;3.37;;;8.60;1.00;;;;;;5070751;28;20394;-67
2023/12/26 00:12:37;;;;;;;4.00;3.60;;;8.60;1.00;;;;;;5071635;28;20541;-67
2023/12/26 00:15:03;;;;;;;4.80;4.10;;;8.70;1.00;;;;;;5071048;28;20487;-69
2023/12/26 00:17:29;;;;;;;4.63;3.87;;;8.70;1.00;;;;;;5074067;28;20661;-65
2023/12/26 00:19:55;;;;;;;6.73;3.50;;;8.70;1.00;;;;;;5059309;28;20413;-64
2023/12/26 00:22:20;;;;;;;4.53;3.87;;;8.70;1.00;;;;;;5055840;28;20179;-68
2023/12/26 00:24:49;;;;;;;6.13;3.97;;;8.70;1.00;;;;;;5054640;28;20505;-66
2023/12/26 00:27:14;;;;;;;6.83;3.20;;;8.80;1.00;;;;;;5055899;28;20212;-63
2023/12/26 00:29:40;;;;;;;8.43;3.70;;;8.80;1.00;;;;;;5055357;28;20539;-68
2023/12/26 00:32:06;;;;;;;5.93;3.97;;;8.80;1.00;;;;;;5055513;28;20173;-68
2023/12/26 00:34:32;;;;;;;9.40;3.20;;;8.70;1.00;;;;;;5066481;28;20668;-72
2023/12/26 00:36:57;;;;;;;7.80;3.97;;;8.80;1.00;;;;;;5075516;28;20180;-63
2023/12/26 00:39:23;;;;;;;6.97;3.67;;;8.80;1.00;;;;;;5074005;28;20588;-68
2023/12/26 00:41:49;;;;;;;4.30;2.97;;;8.70;1.00;;;;;;5055614;28;20173;-67
2023/12/26 00:44:14;;;;;;;4.03;3.60;;;8.80;1.00;;;;;;5055461;28;20629;-65
2023/12/26 00:46:41;;;;;;;4.57;3.10;;;8.80;1.00;;;;;;5054633;28;20614;-64
2023/12/26 00:49:06;;;;;;;7.50;2.83;;;8.80;1.00;;;;;;5062534;28;20201;-64
2023/12/26 00:51:32;;;;;;;3.20;2.93;;;8.80;1.00;;;;;;5075044;28;20813;-67
2023/12/26 00:53:58;;;;;;;4.10;3.10;;;8.70;1.00;;;;;;5075343;28;20170;-64
2023/12/26 00:56:24;;;;;;;3.47;3.17;;;8.80;1.00;;;;;;5074498;28;20384;-64
2023/12/26 00:58:49;;;;;;;11.00;3.10;;;8.70;1.00;;;;;;5075237;28;20269;-64
2023/12/26 01:01:15;;;;;;;8.40;3.63;;;8.70;1.00;;;;;;5075181;28;20530;-64
2023/12/26 01:03:41;;;;;;;7.70;3.37;;;8.70;1.00;;;;;;5074099;28;20181;-66
2023/12/26 01:06:07;;;;;;;9.50;3.43;;;8.70;1.00;;;;;;5073828;28;20202;-67
2023/12/26 01:08:33;;;;;;;7.27;3.67;;;8.70;1.00;;;;;;5062493;28;20193;-65
2023/12/26 01:10:58;;;;;;;5.90;2.83;;;8.70;1.00;;;;;;5054304;28;20231;-68
2023/12/26 01:13:25;;;;;;;4.27;2.67;;;8.70;1.00;;;;;;5054923;28;20406;-66
2023/12/26 01:15:51;;;;;;;8.13;3.43;;;8.70;1.00;;;;;;5054235;28;20224;-65
2023/12/26 01:18:17;;;;;;;4.03;3.10;;;8.70;1.00;;;;;;5059663;28;20436;-67
2023/12/26 01:20:42;;;;;;;7.57;3.13;;;8.70;1.00;;;;;;5074781;28;20166;-64
2023/12/26 01:23:08;;;;;;;7.70;2.83;;;8.80;1.00;;;;;;5074573;28;20178;-64
2023/12/26 01:25:34;;;;;;;4.60;2.40;;;8.80;1.00;;;;;;5073393;28;20259;-67
2023/12/26 01:28:00;;;;;;;3.53;3.20;;;8.80;1.00;;;;;;5073248;28;20217;-67
2023/12/26 01:30:25;;;;;;;3.37;2.50;;;8.70;1.00;;;;;;5074543;28;20179;-68
2023/12/26 01:32:51;;;;;;;3.93;3.00;;;8.70;1.00;;;;;;5073462;28;20403;-67
2023/12/26 01:35:17;;;;;;;5.70;2.93;;;8.70;1.00;;;;;;5073219;28;20508;-67
2023/12/26 01:37:42;;;;;;;4.07;3.30;;;8.80;1.00;;;;;;5054374;28;20221;-68
2023/12/26 01:40:10;;;;;;;3.73;2.80;;;8.80;1.00;;;;;;5054438;28;20569;-66
2023/12/26 01:42:39;;;;;;;7.00;3.03;;;8.80;1.00;;;;;;5054373;28;20205;-67
2023/12/26 01:45:05;;;;;;;3.07;2.87;;;8.80;1.00;;;;;;5052061;28;20397;-64
2023/12/26 01:47:31;;;;;;;3.83;3.07;;;8.70;1.00;;;;;;5056698;28;20407;-64
2023/12/26 01:49:57;;;;;;;10.00;2.90;;;8.80;1.00;;;;;;5074322;28;20402;-66
2023/12/26 01:52:22;;;;;;;4.37;2.70;;;8.80;1.00;;;;;;5074315;28;20205;-66
2023/12/26 01:54:48;;;;;;;5.00;3.10;;;8.70;1.00;;;;;;5073347;28;20178;-69
2023/12/26 01:57:14;;;;;;;3.20;2.33;;;8.70;1.00;;;;;;5056226;28;20184;-66
2023/12/26 01:59:42;;;;;;;8.33;2.57;;;8.70;1.00;;;;;;5034110;28;20177;-65
2023/12/26 02:02:08;;;;;;;3.60;2.87;;;8.70;1.00;;;;;;5036826;28;20418;-69
2023/12/26 02:04:34;;;;;;;4.13;2.30;;;8.70;1.00;;;;;;5055917;28;20839;-69
2023/12/26 02:07:00;;;;;;;3.13;2.83;;;8.70;1.00;;;;;;5053753;28;20438;-67
2023/12/26 02:09:26;;;;;;;3.57;2.67;;;8.70;1.00;;;;;;5053767;28;20414;-65
2023/12/26 02:11:53;;;;;;;4.80;2.70;;;8.70;1.00;;;;;;5053997;28;20636;-69
2023/12/26 02:14:19;;;;;;;7.27;4.00;;;8.70;1.00;;;;;;5053871;28;20496;-69
2023/12/26 02:16:47;;;;;;;2.37;2.20;;;8.70;1.00;;;;;;5052988;28;20494;-66
2023/12/26 02:19:14;;;;;;;4.47;2.57;;;8.70;1.00;;;;;;5073319;28;20445;-66
2023/12/26 02:21:39;;;;;;;9.10;2.00;;;8.80;1.00;;;;;;5073652;28;20435;-64
2023/12/26 02:24:05;;;;;;;2.50;2.13;;;8.70;1.00;;;;;;5055202;28;20502;-66
2023/12/26 02:26:35;;;;;;;5.90;2.20;;;8.80;1.00;;;;;;5052394;28;20287;-65
2023/12/26 02:29:02;;;;;;;3.20;2.53;;;8.80;1.00;;;;;;5053415;28;21062;-67
2023/12/26 02:31:29;;;;;;;7.27;2.40;;;8.80;1.00;;;;;;5053335;28;20526;-65
2023/12/26 02:33:55;;;;;;;4.10;1.80;;;8.80;1.00;;;;;;5052906;28;20390;-65
2023/12/26 02:36:21;;;;;;;4.53;1.87;;;8.80;1.00;;;;;;5052466;28;20771;-65
2023/12/26 02:38:47;;;;;;;4.80;2.70;;;8.90;1.00;;;;;;5053249;28;20856;-68
2023/12/26 02:41:13;;;;;;;2.93;2.37;;;8.90;1.00;;;;;;5053006;28;20427;-65
2023/12/26 02:43:42;;;;;;;2.73;2.03;;;8.80;1.00;;;;;;5051684;28;20264;-70
2023/12/26 02:46:07;;;;;;;5.00;2.73;;;8.80;1.00;;;;;;5062687;28;20563;-69
2023/12/26 02:48:33;;;;;;;4.93;2.27;;;8.90;1.00;;;;;;5052069;28;20440;-68
2023/12/26 02:50:59;;;;;;;4.90;3.00;;;8.90;1.00;;;;;;5052849;28;20167;-69
2023/12/26 02:53:25;;;;;;;4.27;2.33;;;8.90;1.00;;;;;;5052181;28;20238;-67
2023/12/26 02:55:52;;;;;;;3.50;2.40;;;8.80;1.00;;;;;;5052212;28;20252;-65
2023/12/26 02:58:19;;;;;;;2.73;2.40;;;8.90;1.00;;;;;;5051691;28;20280;-69
2023/12/26 03:00:45;;;;;;;3.87;3.17;;;8.90;1.00;;;;;;5066654;28;20401;-67
2023/12/26 03:03:11;;;;;;;10.33;2.97;;;8.90;1.00;;;;;;5071634;28;20435;-67
2023/12/26 03:05:37;;;;;;;5.37;2.37;;;8.90;1.00;;;;;;5071972;28;20423;-65
2023/12/26 03:08:03;;;;;;;8.03;2.80;;;8.90;1.00;;;;;;5072511;28;20222;-68
2023/12/26 03:10:28;;;;;;;3.53;2.80;;;8.90;1.00;;;;;;5072969;28;20381;-68
2023/12/26 03:12:54;;;;;;;8.67;2.93;;;8.90;1.00;;;;;;5070699;28;20459;-69
2023/12/26 03:15:20;;;;;;;6.70;3.57;;;8.90;1.00;;;;;;5051765;28;20532;-69
2023/12/26 03:17:45;;;;;;;7.23;2.73;;;9.00;1.00;;;;;;5063938;28;20201;-68
2023/12/26 03:20:11;;;;;;;9.20;4.07;;;9.00;1.00;;;;;;5072503;28;20170;-68
2023/12/26 03:22:41;;;;;;;6.50;3.10;;;9.00;1.00;;;;;;5073080;28;20177;-66
2023/12/26 03:25:07;;;;;;;7.90;3.77;;;9.00;1.00;;;;;;5071692;28;20397;-65
2023/12/26 03:27:33;;;;;;;4.90;2.73;;;8.90;1.00;;;;;;5072287;28;20455;-70
2023/12/26 03:29:59;;;;;;;5.47;3.10;;;8.90;1.00;;;;;;5060708;28;20450;-70
2023/12/26 03:32:24;;;;;;;10.97;4.07;;;9.00;1.00;;;;;;5052479;28;20173;-68
2023/12/26 03:34:53;;;;;;;13.20;4.03;;;9.00;1.00;;;;;;5051596;28;20167;-66
2023/12/26 03:37:19;;;;;;;5.37;3.30;;;9.00;1.00;;;;;;5051137;28;20594;-65
2023/12/26 03:39:44;;;;;;;9.03;3.40;;;9.00;1.00;;;;;;5052470;28;20398;-69
2023/12/26 03:42:10;;;;;;;7.70;3.20;;;9.00;1.00;;;;;;5054816;28;20678;-66
2023/12/26 03:44:36;;;;;;;10.33;3.13;;;8.90;1.00;;;;;;5071179;28;20171;-66
2023/12/26 03:47:01;;;;;;;14.70;4.00;;;8.90;1.00;;;;;;5068758;28;20838;-66
2023/12/26 03:49:32;;;;;;;12.23;3.50;;;8.90;1.00;;;;;;5041302;28;20181;-65
2023/12/26 03:51:57;;;;;;;6.63;3.23;;;8.80;1.00;;;;;;5033672;28;20165;-67
2023/12/26 03:54:23;;;;;;;5.03;3.60;;;8.80;1.00;;;;;;5036144;28;20767;-69
2023/12/26 03:56:49;;;;;;;7.57;3.17;;;8.80;1.00;;;;;;5035444;28;20165;-68
2023/12/26 03:59:14;;;;;;;13.43;5.00;;;8.80;1.00;;;;;;5036372;28;20180;-69
2023/12/26 04:01:40;;;;;;;18.27;3.80;;;8.80;1.00;;;;;;5053870;28;20178;-68
2023/12/26 04:04:06;;;;;;;12.83;4.13;;;8.80;1.00;;;;;;5055801;28;20176;-66
2023/12/26 04:06:31;;;;;;;8.73;2.87;;;8.80;1.00;;;;;;5055354;28;20660;-67
2023/12/26 04:08:57;;;;;;;15.60;3.90;;;8.80;1.00;;;;;;5055236;28;20189;-69
2023/12/26 04:11:23;;;;;;;14.53;4.50;;;8.80;1.00;;;;;;5055813;28;20653;-67
2023/12/26 04:13:48;;;;;;;10.30;4.13;;;8.80;1.00;;;;;;5055783;28;20171;-70
2023/12/26 04:16:14;;;;;;;13.93;3.43;;;8.80;1.00;;;;;;5054989;28;20564;-65
2023/12/26 04:18:40;;;;;;;14.67;4.23;;;8.80;1.00;;;;;;5066483;28;20200;-65
2023/12/26 04:21:06;;;;;;;17.73;4.10;;;8.80;1.00;;;;;;5075564;28;20167;-69
2023/12/26 04:23:31;;;;;;;10.03;4.23;;;8.80;1.00;;;;;;5066060;28;20168;-66
2023/12/26 04:25:57;;;;;;;14.60;3.60;;;8.80;1.00;;;;;;5055259;28;20203;-67
2023/12/26 04:28:23;;;;;;;10.23;2.87;;;8.80;1.00;;;;;;5075722;28;20245;-67
2023/12/26 04:30:48;;;;;;;26.17;4.30;;;8.80;1.00;;;;;;5075682;28;20147;-67
2023/12/26 04:33:14;;;;;;;19.83;3.23;;;8.80;1.00;;;;;;5074431;28;20165;-64
2023/12/26 04:35:40;;;;;;;12.70;4.37;;;8.80;1.00;;;;;;5074909;28;20839;-68
2023/12/26 04:38:06;;;;;;;10.20;3.97;;;8.80;1.00;;;;;;5057066;28;21025;-69
2023/12/26 04:40:32;;;;;;;15.53;4.60;;;8.80;1.00;;;;;;5055253;28;20476;-66
2023/12/26 04:43:05;;;;;;;12.80;4.40;;;8.80;1.00;;;;;;5055605;28;20562;-70
2023/12/26 04:45:31;;;;;;;15.73;4.67;;;8.80;1.00;;;;;;5054691;28;20736;-66
2023/12/26 04:47:56;;;;;;;7.60;3.60;;;8.70;1.00;;;;;;5060209;28;20401;-65
2023/12/26 04:50:22;;;;;;;12.43;3.70;;;8.70;1.00;;;;;;5074894;28;20576;-65
2023/12/26 04:52:48;;;;;;;17.30;3.90;;;8.70;1.00;;;;;;5074201;28;20224;-69
2023/12/26 04:55:14;;;;;;;14.60;5.10;;;8.80;1.00;;;;;;5074700;28;20178;-64
2023/12/26 04:57:39;;;;;;;15.43;4.57;;;8.70;1.00;;;;;;5074695;28;20659;-69
2023/12/26 05:00:12;;;;;;;18.30;4.27;;;8.70;1.00;;;;;;5075139;28;20245;-69
2023/12/26 05:02:38;;;;;;;14.53;4.20;;;8.80;1.00;;;;;;5073139;28;20175;-69
2023/12/26 05:05:04;;;;;;;11.10;4.00;;;8.70;99.90;;;;;;5074166;28;20413;-65
2023/12/26 05:07:30;;;;;;;19.37;4.63;;;8.80;99.90;;;;;;5075159;28;20908;-69
2023/12/26 05:09:55;;;;;;;12.70;4.13;;;8.70;99.90;;;;;;5065808;28;20451;-68
2023/12/26 05:12:21;;;;;;;14.93;4.93;;;8.70;99.90;;;;;;5055027;28;20175;-65
2023/12/26 05:14:47;;;;;;;12.23;3.60;;;8.70;99.90;;;;;;5054098;28;20696;-69
2023/12/26 05:17:14;;;;;;;18.77;4.20;;;8.80;99.90;;;;;;5069649;28;20193;-68
2023/12/26 05:19:40;;;;;;;18.10;4.10;;;8.70;99.90;;;;;;5054573;28;20175;-70
2023/12/26 05:22:06;;;;;;;9.70;4.03;;;8.70;99.90;;;;;;5054933;28;20393;-69
2023/12/26 05:24:35;;;;;;;24.90;7.13;;;8.70;99.90;;;;;;5052844;28;20634;-70
2023/12/26 05:27:00;;;;;;;8.80;4.10;;;8.70;99.90;;;;;;5053060;28;20203;-64
2023/12/26 05:29:26;;;;;;;13.80;3.90;;;8.60;99.90;;;;;;5054166;28;20398;-68
2023/12/26 05:31:52;;;;;;;7.37;3.33;;;8.60;99.90;;;;;;5069467;28;20166;-65
2023/12/26 05:34:18;;;;;;;9.73;3.97;;;8.60;99.90;;;;;;5059418;28;20179;-69
2023/12/26 05:36:44;;;;;;;13.10;4.40;;;8.70;99.90;;;;;;5053745;28;20430;-65
2023/12/26 05:39:14;;;;;;;16.73;4.50;;;8.60;99.90;;;;;;5054207;28;20526;-70
2023/12/26 05:41:43;;;;;;;25.00;4.60;;;8.60;99.90;;;;;;5051184;28;20732;-64
2023/12/26 05:44:08;;;;;;;10.43;4.90;;;8.60;99.90;;;;;;5034553;28;20389;-69
2023/12/26 05:46:34;;;;;;;11.83;3.67;;;8.60;99.90;;;;;;5048063;28;20514;-66
2023/12/26 05:49:00;;;;;;;18.37;4.47;;;8.60;99.90;;;;;;5053488;28;20806;-67
2023/12/26 05:51:26;;;;;;;12.40;4.03;;;8.60;99.90;;;;;;5054330;28;20246;-70
2023/12/26 05:53:52;;;;;;;12.80;4.10;;;8.50;99.90;;;;;;5053988;28;20191;-68
2023/12/26 05:56:19;;;;;;;18.83;4.67;;;8.50;99.90;;;;;;5053224;28;20804;-69
2023/12/26 05:58:45;;;;;;;22.23;4.67;;;8.50;99.90;;;;;;5059178;28;20438;-71
2023/12/26 06:01:11;;;;;;;13.07;3.77;;;8.50;99.90;;;;;;5074109;28;20570;-65
2023/12/26 06:03:39;;;;;;;21.23;5.40;;;8.50;99.90;;;;;;5068481;28;20228;-72
2023/12/26 06:06:10;;;;;;;8.57;3.30;;;8.40;99.90;;;;;;5053166;28;20198;-71
2023/12/26 06:08:35;;;;;;;12.30;5.10;;;8.40;99.90;;;;;;5053677;28;20436;-69
2023/12/26 06:11:01;;;;;;;18.70;4.77;;;8.40;99.90;;;;;;5052678;28;20496;-69
2023/12/26 06:13:27;;;;;;;14.27;5.93;;;8.40;99.90;;;;;;5058518;28;20522;-66
2023/12/26 06:15:53;;;;;;;17.00;6.20;;;8.40;99.90;;;;;;5072258;28;20167;-70
2023/12/26 06:18:19;;;;;;;14.90;4.00;;;8.40;99.90;;;;;;5072855;28;20428;-70
2023/12/26 06:20:45;;;;;;;22.87;6.17;;;8.40;99.90;;;;;;5053877;28;20174;-65
2023/12/26 06:23:10;;;;;;;16.37;4.80;;;8.40;99.90;;;;;;5053377;28;20639;-68
2023/12/26 06:25:36;;;;;;;11.87;4.00;;;8.40;99.90;;;;;;5052176;28;20199;-68
2023/12/26 06:28:02;;;;;;;20.00;4.40;;;8.40;99.90;;;;;;5053506;28;20191;-67
2023/12/26 06:30:28;;;;;;;18.43;4.83;;;8.40;99.90;;;;;;5053363;28;20698;-65
2023/12/26 06:32:54;;;;;;;18.13;4.23;;;8.40;99.90;;;;;;5071902;28;20417;-65
2023/12/26 06:35:19;;;;;;;10.40;3.70;;;8.40;99.90;;;;;;5057313;28;20174;-65
2023/12/26 06:37:45;;;;;;;17.27;4.20;;;8.40;99.90;;;;;;5053167;28;20505;-69
2023/12/26 06:40:11;;;;;;;21.40;3.83;;;8.40;99.90;;;;;;5052492;28;20179;-64
2023/12/26 06:42:37;;;;;;;13.90;4.87;;;8.40;99.90;;;;;;5053119;28;20270;-66
2023/12/26 06:45:03;;;;;;;12.13;4.90;;;8.40;99.90;;;;;;5052313;28;20397;-73
2023/12/26 06:47:29;;;;;;;12.30;4.43;;;8.40;99.90;;;;;;5069073;28;20324;-66
2023/12/26 06:49:55;;;;;;;10.03;3.97;;;8.50;99.90;;;;;;5070687;28;20823;-67
2023/12/26 06:52:21;;;;;;;11.17;3.63;;;8.50;99.90;;;;;;5073100;28;20396;-68
2023/12/26 06:54:48;;;;;;;11.47;3.40;;;8.50;99.90;;;;;;5072239;28;20531;-70
2023/12/26 06:57:17;;;;;;;14.83;4.13;;;8.50;99.90;;;;;;5073061;28;20190;-66
2023/12/26 06:59:48;;;;;;;10.33;4.03;;;8.50;99.90;;;;;;5063408;28;20429;-70
2023/12/26 07:02:14;;;;;;;19.80;4.37;;;8.40;91.00;;;;;;5052867;28;20381;-71
2023/12/26 07:04:46;;;;;;;18.63;4.43;;;8.50;62.40;;;;;;5051494;28;20400;-69
2023/12/26 07:07:12;;;;;;;14.23;4.30;;;8.40;29.30;;;;;;5052932;28;20469;-65
2023/12/26 07:09:38;;;;;;;26.40;4.47;;;8.40;1.00;;;;;;5051621;28;20409;-66
2023/12/26 07:12:05;;;;;;;14.13;4.67;;;8.40;1.00;;;;;;5052875;28;20409;-71
2023/12/26 07:14:30;;;;;;;7.43;2.90;;;8.40;1.00;;;;;;5051715;28;20410;-71
2023/12/26 07:16:57;;;;;;;12.43;6.60;;;8.40;1.00;;;;;;5051604;28;20892;-70
2023/12/26 07:19:23;;;;;;;6.77;3.13;;;8.50;1.00;;;;;;5052612;28;20229;-67
2023/12/26 07:21:49;;;;;;;13.77;4.33;;;8.50;1.00;;;;;;5052652;28;20418;-67
2023/12/26 07:24:15;;;;;;;10.63;4.47;;;8.50;1.00;;;;;;5052312;28;20392;-68
2023/12/26 07:26:40;;;;;;;14.53;3.97;;;8.50;1.00;;;;;;5051530;28;20233;-70
2023/12/26 07:29:06;;;;;;;10.77;3.27;;;8.40;1.00;;;;;;5051404;28;20191;-65
2023/12/26 07:31:32;;;;;;;8.40;3.27;;;8.50;1.00;;;;;;5052777;28;20165;-67
2023/12/26 07:34:00;;;;;;;14.33;5.17;;;8.40;1.00;;;;;;5066002;28;20232;-71
2023/12/26 07:36:25;;;;;;;12.30;3.80;;;8.40;1.00;;;;;;5071098;28;20400;-65
2023/12/26 07:38:51;;;;;;;9.73;3.63;;;8.40;1.00;;;;;;5063344;28;20466;-66
2023/12/26 07:41:17;;;;;;;14.13;4.13;;;8.40;1.00;;;;;;5032834;28;20171;-71
2023/12/26 07:43:44;;;;;;;13.10;4.40;;;8.40;1.00;;;;;;5032435;28;20498;-66
2023/12/26 07:46:10;;;;;;;14.60;4.03;;;8.40;1.00;;;;;;5031724;28;20196;-65
2023/12/26 07:48:35;;;;;;;7.60;3.43;;;8.30;1.00;;;;;;5063803;28;20438;-69
2023/12/26 07:51:01;;;;;;;14.90;4.33;;;8.30;1.00;;;;;;5072541;28;20897;-67
2023/12/26 07:53:27;;;;;;;9.73;3.30;;;8.30;1.00;;;;;;5072015;28;20168;-71
2023/12/26 07:55:53;;;;;;;11.30;4.60;;;8.20;1.00;;;;;;5070283;28;20182;-70
2023/12/26 07:58:18;;;;;;;10.20;3.40;;;8.20;1.00;;;;;;5072313;28;20429;-65
2023/12/26 08:00:44;;;;;;;10.73;3.50;;;8.20;1.00;;;;;;5066772;28;20510;-71
2023/12/26 08:03:15;;;;;;;8.70;3.20;;;8.20;1.00;;;;;;5051992;28;20186;-65
2023/12/26 08:05:42;;;;;;;11.30;3.27;;;8.20;1.00;;;;;;5051527;28;20281;-71
2023/12/26 08:08:08;;;;;;;10.77;4.47;;;8.20;1.00;;;;;;5052290;28;20494;-65
2023/12/26 08:10:33;;;;;;;18.00;4.60;;;8.30;1.00;;;;;;5052138;28;20405;-71
2023/12/26 08:13:00;;;;;;;10.30;3.30;;;8.20;1.00;;;;;;5051999;28;20401;-67
2023/12/26 08:15:26;;;;;;;12.40;4.17;;;8.20;1.00;;;;;;5054645;28;20534;-69
2023/12/26 08:17:52;;;;;;;15.67;3.97;;;8.20;1.00;;;;;;5071019;28;20412;-65
2023/12/26 08:20:17;;;;;;;16.27;4.33;;;8.30;1.00;;;;;;5072054;28;20526;-68
2023/12/26 08:22:43;;;;;;;41.97;4.07;;;8.20;1.00;;;;;;5063186;28;20258;-69
2023/12/26 08:25:09;;;;;;;12.33;3.20;;;8.20;1.00;;;;;;5050159;28;20274;-71
2023/12/26 08:27:36;;;;;;;13.23;3.13;;;8.20;1.00;;;;;;5050432;28;20248;-71
2023/12/26 08:30:02;;;;;;;11.60;3.70;;;8.20;1.00;;;;;;5051560;28;20488;-71
2023/12/26 08:32:28;;;;;;;17.20;4.00;;;8.20;1.00;;;;;;5070519;28;20424;-72
2023/12/26 08:34:54;;;;;;;9.63;3.33;;;8.30;1.00;;;;;;5070876;28;20772;-66
2023/12/26 08:37:20;;;;;;;4.70;3.17;;;8.30;1.00;;;;;;5069966;28;20502;-66
2023/12/26 08:39:46;;;;;;;12.03;3.30;;;8.30;1.00;;;;;;5074430;28;20262;-71
2023/12/26 08:42:11;;;;;;;11.10;3.20;;;8.30;1.00;;;;;;5075591;28;20175;-65
2023/12/26 08:44:37;;;;;;;10.80;3.17;;;8.40;1.00;;;;;;5074250;28;20412;-68
2023/12/26 08:47:05;;;;;;;11.50;4.10;;;8.40;1.00;;;;;;5074312;28;20209;-65
2023/12/26 08:49:31;;;;;;;13.60;3.30;;;8.40;1.00;;;;;;5075156;28;20229;-68
2023/12/26 08:51:56;;;;;;;14.43;3.30;;;8.40;1.00;;;;;;5075324;28;20498;-65
2023/12/26 08:54:22;;;;;;;19.67;3.77;;;8.40;1.00;;;;;;5075434;28;20957;-64
2023/12/26 08:56:48;;;;;;;16.80;3.47;;;8.40;1.00;;;;;;5074580;28;20235;-70
2023/12/26 08:59:14;;;;;;;12.17;3.30;;;8.40;1.00;;;;;;5075128;28;20282;-66
2023/12/26 09:01:39;;;;;;;12.23;2.93;;;8.50;1.00;;;;;;5072986;28;20187;-70
2023/12/26 09:04:07;;;;;;;6.27;3.60;;;8.50;1.00;;;;;;5075305;28;20623;-70
2023/12/26 09:06:33;;;;;;;8.07;4.17;;;8.50;1.00;;;;;;5069996;28;20787;-65
2023/12/26 09:08:59;;;;;;;7.60;3.00;;;8.60;1.00;;;;;;5054623;28;20435;-70
2023/12/26 09:11:24;;;;;;;29.97;4.63;;;8.60;1.00;;;;;;5054802;28;20171;-69
2023/12/26 09:13:50;;;;;;;13.17;4.20;;;8.50;1.00;;;;;;5055058;28;20167;-64
2023/12/26 09:16:16;;;;;;;19.27;3.67;;;8.60;1.00;;;;;;5060517;28;20274;-69
2023/12/26 09:18:42;;;;;;;13.13;3.60;;;8.50;1.00;;;;;;5074469;28;20279;-66
2023/12/26 09:21:08;;;;;;;11.73;3.43;;;8.50;1.00;;;;;;5074929;28;20164;-68
2023/12/26 09:23:33;;;;;;;14.57;3.93;;;8.30;1.00;;;;;;5074581;28;20496;-65
2023/12/26 09:26:06;;;;;;;12.43;3.70;;;8.30;1.00;;;;;;5073890;28;20195;-72
2023/12/26 09:28:32;;;;;;;13.80;4.03;;;8.20;1.00;;;;;;5073341;28;20228;-68
2023/12/26 09:30:58;;;;;;;13.30;5.03;;;8.20;1.00;;;;;;5073712;28;20436;-72
2023/12/26 09:33:27;;;;;;;24.87;5.27;;;8.20;1.00;;;;;;5074620;28;20167;-72
2023/12/26 09:35:52;;;;;;;15.27;4.73;;;8.20;1.00;;;;;;5058265;28;20452;-70
2023/12/26 09:38:18;;;;;;;14.13;4.67;;;8.30;1.00;;;;;;5054312;28;20825;-71
2023/12/26 09:40:44;;;;;;;8.17;3.43;;;8.30;1.00;;;;;;5052421;28;20183;-72
2023/12/26 09:43:10;;;;;;;8.93;3.23;;;8.30;1.00;;;;;;5054371;28;20174;-71
2023/12/26 09:45:36;;;;;;;10.03;3.40;;;8.40;1.00;;;;;;5054116;28;20273;-65
2023/12/26 09:48:02;;;;;;;12.63;3.93;;;8.50;1.00;;;;;;5054318;28;21006;-70
2023/12/26 09:50:27;;;;;;;11.13;3.40;;;8.60;1.00;;;;;;5042309;28;20682;-72
2023/12/26 09:53:01;;;;;;;9.67;3.53;;;8.60;1.00;;;;;;5034391;28;20405;-66
2023/12/26 09:55:29;;;;;;;5.90;2.80;;;8.60;1.00;;;;;;5033072;28;20161;-69
2023/12/26 09:57:58;;;;;;;15.43;3.67;;;8.60;1.00;;;;;;5034189;28;20406;-71
2023/12/26 10:00:27;;;;;;;10.37;3.50;;;8.70;1.00;;;;;;5034100;28;20479;-66
2023/12/26 10:02:53;;;;;;;6.10;3.00;;;8.70;1.00;;;;;;5054750;28;20405;-65
2023/12/26 10:05:23;;;;;;;22.03;3.70;;;8.70;1.00;;;;;;5052976;28;20408;-70
2023/12/26 10:07:49;;;;;;;14.63;3.53;;;8.70;1.00;;;;;;5055058;28;20919;-70
2023/12/26 10:10:24;;;;;;;12.20;3.43;;;8.70;1.00;;;;;;5073903;28;20405;-70
2023/12/26 10:12:50;;;;;;;10.03;3.40;;;8.70;1.00;;;;;;5073486;28;20215;-72
2023/12/26 10:15:17;;;;;;;7.97;4.17;;;8.70;1.00;;;;;;5072799;28;20433;-71
2023/12/26 10:17:43;;;;;;;14.93;4.50;;;8.60;1.00;;;;;;5056870;28;20425;-71
2023/12/26 10:20:12;;;;;;;10.60;4.20;;;8.50;1.00;;;;;;5053588;28;20406;-71
2023/12/26 10:22:42;;;;;;;7.80;3.67;;;8.40;1.00;;;;;;5053868;28;20431;-67
2023/12/26 10:25:10;;;;;;;18.43;4.60;;;8.50;1.00;;;;;;5052544;28;20926;-66
2023/12/26 10:27:37;;;;;;;11.93;4.20;;;8.40;1.00;;;;;;5053563;28;20412;-70
2023/12/26 10:30:03;;;;;;;16.33;5.63;;;8.30;1.00;;;;;;5053335;28;20418;-72
2023/12/26 10:32:30;;;;;;;11.50;4.40;;;8.30;1.00;;;;;;5054181;28;20376;-70
2023/12/26 10:34:55;;;;;;;8.20;3.70;;;8.30;1.00;;;;;;5051488;28;20409;-67
2023/12/26 10:37:22;;;;;;;19.77;3.83;;;8.30;1.00;;;;;;5065218;28;20436;-70
2023/12/26 10:39:48;;;;;;;15.30;4.53;;;8.20;1.00;;;;;;5073521;28;20250;-66
2023/12/26 10:42:20;;;;;;;19.27;4.53;;;8.20;1.00;;;;;;5073406;28;20428;-66
2023/12/26 10:45:01;;;;;;;23.43;4.70;;;8.20;1.00;;;;;;5072203;28;20813;-66
2023/12/26 10:47:30;;;;;;;19.30;4.97;;;8.20;1.00;;;;;;5058345;28;20468;-66
2023/12/26 10:49:59;;;;;;;21.43;5.83;;;8.30;1.00;;;;;;5053328;28;20513;-72
2023/12/26 10:52:29;;;;;;;20.67;7.10;;;8.40;1.00;;;;;;5052949;28;20415;-72
2023/12/26 10:55:04;;;;;;;23.93;4.27;;;8.40;1.00;;;;;;5052024;28;20890;-66
2023/12/26 10:57:32;;;;;;;18.00;4.33;;;8.40;1.00;;;;;;5053006;28;20950;-66
2023/12/26 11:00:48;;;;;;;10.10;4.00;;;8.40;1.00;;;;;;5053092;28;20416;-66
2023/12/26 13:54:25;;;;;;;2.07;1.97;;;7.10;1.00;;;;;;5034716;28;20393;-66
2023/12/26 13:57:28;;;;;;;1.90;1.80;;;7.00;1.00;;;;;;5033957;28;20377;-72
2023/12/26 14:00:33;;;;;;;2.40;1.90;;;7.00;1.00;;;;;;5034566;28;20421;-71
2023/12/26 14:03:36;;;;;;;1.83;1.73;;;7.00;1.00;;;;;;5060322;28;20404;-71
2023/12/26 14:06:39;;;;;;;1.90;1.80;;;6.90;1.00;;;;;;5072222;28;20466;-70
2023/12/26 14:09:42;;;;;;;1.63;1.53;;;6.80;1.00;;;;;;5074087;28;20431;-71
2023/12/26 14:12:45;;;;;;;1.80;1.70;;;6.90;1.00;;;;;;5074315;28;20415;-70
2023/12/26 14:15:48;;;;;;;3.53;1.80;;;6.80;1.00;;;;;;5073387;28;20478;-66
2023/12/26 14:18:51;;;;;;;1.80;1.70;;;6.90;1.00;;;;;;5072900;28;20439;-66
2023/12/26 14:21:54;;;;;;;2.70;1.73;;;6.90;1.00;;;;;;5058213;28;20411;-69
2023/12/26 14:24:57;;;;;;;6.83;1.90;;;6.90;1.00;;;;;;5053086;28;20413;-67
2023/12/26 14:28:00;;;;;;;2.43;1.90;;;6.90;1.00;;;;;;5053810;28;20463;-71
2023/12/26 14:31:03;;;;;;;3.53;2.10;;;6.80;1.00;;;;;;5053780;28;20390;-66
2023/12/26 14:34:06;;;;;;;3.53;1.70;;;6.80;1.00;;;;;;5033908;28;20402;-71
2023/12/26 14:37:11;;;;;;;6.33;1.80;;;6.80;1.00;;;;;;5032410;28;20512;-71
2023/12/26 14:40:14;;;;;;;3.10;1.83;;;6.80;1.00;;;;;;5033770;28;20406;-71
2023/12/26 14:43:17;;;;;;;1.87;1.70;;;6.60;1.00;;;;;;5033703;28;20410;-68
2023/12/26 14:46:20;;;;;;;1.60;1.50;;;6.70;1.00;;;;;;5034458;28;20420;-66
2023/12/26 14:49:23;;;;;;;6.93;2.10;;;6.60;1.00;;;;;;5053396;28;20929;-68
2023/12/26 14:52:25;;;;;;;2.90;1.70;;;6.60;1.00;;;;;;5053603;28;20404;-71
2023/12/26 14:55:29;;;;;;;4.20;1.97;;;6.60;1.00;;;;;;5051440;28;20413;-68
2023/12/26 14:58:32;;;;;;;3.63;2.40;;;6.60;1.00;;;;;;5053185;28;20494;-66
2023/12/26 15:01:34;;;;;;;3.50;3.20;;;6.50;1.00;;;;;;5053466;28;20424;-69
2023/12/26 15:04:03;;;;;;;2.73;2.23;;;6.40;1.00;;;;;;5051733;28;20413;-72
2023/12/26 15:06:30;;;;;;;8.10;3.40;;;6.30;1.00;;;;;;5052351;28;20807;-67
2023/12/26 15:08:55;;;;;;;4.43;2.27;;;6.30;1.00;;;;;;5053205;28;20425;-66
2023/12/26 15:11:21;;;;;;;4.47;2.20;;;6.30;1.00;;;;;;5053227;28;20805;-71
2023/12/26 15:13:47;;;;;;;5.10;2.40;;;6.30;1.00;;;;;;5053286;28;20167;-67
2023/12/26 15:16:17;;;;;;;4.10;2.60;;;6.20;1.00;;;;;;5061681;28;20647;-70
2023/12/26 15:18:43;;;;;;;1.93;1.83;;;6.20;1.00;;;;;;5072878;28;20182;-71
2023/12/26 15:21:09;;;;;;;5.30;2.40;;;6.20;1.00;;;;;;5072048;28;20404;-66
2023/12/26 15:23:35;;;;;;;5.07;2.03;;;6.20;1.40;;;;;;5072920;28;20178;-71
2023/12/26 15:26:00;;;;;;;14.13;2.70;;;6.30;4.50;;;;;;5057231;28;20280;-66
2023/12/26 15:28:26;;;;;;;2.23;2.03;;;6.30;2.30;;;;;;5052829;28;20551;-71
2023/12/26 15:30:52;;;;;;;2.10;1.90;;;6.30;1.00;;;;;;5058883;28;20174;-71
2023/12/26 15:33:19;;;;;;;2.40;1.93;;;6.30;1.00;;;;;;5073195;28;20162;-67
2023/12/26 15:35:45;;;;;;;6.00;2.33;;;6.30;1.00;;;;;;5069967;28;20525;-71
2023/12/26 15:38:11;;;;;;;5.47;2.67;;;6.30;1.00;;;;;;5073003;28;20792;-72
2023/12/26 15:40:37;;;;;;;10.37;2.83;;;6.30;1.00;;;;;;5072422;28;20412;-72
2023/12/26 15:43:03;;;;;;;3.00;1.97;;;6.30;1.00;;;;;;5071589;28;20954;-71
2023/12/26 15:45:30;;;;;;;11.13;2.47;;;6.30;1.00;;;;;;5069554;28;20220;-66
2023/12/26 15:47:56;;;;;;;10.73;2.37;;;6.30;1.00;;;;;;5055557;28;20392;-71
2023/12/26 15:50:22;;;;;;;10.83;2.93;;;6.10;1.00;;;;;;5055832;28;20444;-71
2023/12/26 15:52:49;;;;;;;3.77;1.80;;;6.10;1.00;;;;;;5056673;28;20159;-71
2023/12/26 15:55:16;;;;;;;1.73;1.63;;;6.00;1.00;;;;;;5055092;28;20492;-71
2023/12/26 15:57:41;;;;;;;2.70;1.80;;;5.80;1.00;;;;;;5055851;28;20464;-68
2023/12/26 16:00:08;;;;;;;2.10;1.80;;;5.70;1.00;;;;;;5055314;28;20905;-70